createdAt,value
2023-02-17T00:02:23.074Z,-1.28
2023-02-17T00:04:55.268Z,-1.25
2023-02-17T00:07:31.545Z,-1.22
2023-02-17T00:10:02.640Z,-1.19
2023-02-17T00:12:33.613Z,-1.15
2023-02-17T00:15:04.778Z,-1.11
2023-02-17T00:17:35.782Z,-1.08
2023-02-17T00:20:08.194Z,-1.04
2023-02-17T00:22:39.242Z,-1.00
2023-02-17T00:25:10.903Z,-0.97
2023-02-17T00:27:40.220Z,-0.95
2023-02-17T00:30:13.111Z,-0.95
2023-02-17T00:32:44.234Z,-0.93
2023-02-17T00:35:15.169Z,-0.92
2023-02-17T00:37:46.157Z,-0.91
2023-02-17T00:40:17.944Z,-0.90
2023-02-17T00:42:49.308Z,-0.90
2023-02-17T00:45:23.398Z,-0.89
2023-02-17T00:47:53.007Z,-0.87
2023-02-17T00:50:24.217Z,-0.88
2023-02-17T00:52:55.387Z,-0.85
2023-02-17T00:55:26.807Z,-0.81
2023-02-17T00:57:57.748Z,-0.79
2023-02-17T01:00:28.916Z,-0.79
2023-02-17T01:02:59.901Z,-0.79
2023-02-17T01:05:31.110Z,-0.78
2023-02-17T01:08:02.060Z,-0.77
2023-02-17T01:10:32.975Z,-0.73
2023-02-17T01:13:03.973Z,-0.72
2023-02-17T01:15:37.903Z,-0.70
2023-02-17T01:18:08.977Z,-0.70
2023-02-17T01:20:41.455Z,-0.68
2023-02-17T01:23:14.332Z,-0.67
2023-02-17T01:25:47.660Z,-0.66
2023-02-17T01:28:21.200Z,-0.66
2023-02-17T01:30:52.406Z,-0.66
2023-02-17T01:33:23.444Z,-0.65
2023-02-17T01:35:54.547Z,-0.64
2023-02-17T01:38:25.605Z,-0.65
2023-02-17T01:40:56.954Z,-0.63
2023-02-17T01:43:28.305Z,-0.61
2023-02-17T01:45:58.534Z,-0.60
2023-02-17T01:48:33.447Z,-0.61
2023-02-17T01:51:07.042Z,-0.62
2023-02-17T01:53:43.062Z,-0.60
2023-02-17T01:56:15.515Z,-0.60
2023-02-17T01:58:51.680Z,-0.58
2023-02-17T02:01:23.400Z,-0.56
2023-02-17T02:03:55.477Z,-0.53
2023-02-17T02:06:30.084Z,-0.56
2023-02-17T02:09:04.621Z,-0.60
2023-02-17T02:11:36.828Z,-0.61
2023-02-17T02:14:10.042Z,-0.59
2023-02-17T02:16:47.885Z,-0.56
2023-02-17T02:19:50.918Z,-0.54
2023-02-17T02:22:41.200Z,-0.51
2023-02-17T02:25:20.205Z,-0.49
2023-02-17T02:27:59.061Z,-0.48
2023-02-17T02:30:58.523Z,-0.49
2023-02-17T02:33:39.495Z,-0.50
2023-02-17T02:36:16.493Z,-0.50
2023-02-17T02:39:12.455Z,-0.51
2023-02-17T02:41:47.637Z,-0.52
2023-02-17T02:44:22.130Z,-0.54
2023-02-17T02:47:02.239Z,-0.57
2023-02-17T02:49:36.868Z,-0.58
2023-02-17T02:52:21.046Z,-0.59
2023-02-17T02:55:01.265Z,-0.58
2023-02-17T02:57:45.113Z,-0.60
2023-02-17T03:00:23.112Z,-0.62
2023-02-17T03:02:58.917Z,-0.67
2023-02-17T03:05:39.875Z,-0.76
2023-02-17T03:08:16.204Z,-0.81
2023-02-17T03:10:52.176Z,-0.83
2023-02-17T03:13:23.887Z,-0.83
2023-02-17T03:15:55.213Z,-0.83
2023-02-17T03:18:26.404Z,-0.81
2023-02-17T03:21:07.551Z,-0.81
2023-02-17T03:23:38.570Z,-0.81
2023-02-17T03:26:09.635Z,-0.80
2023-02-17T03:28:40.757Z,-0.80
2023-02-17T03:31:11.651Z,-0.80
2023-02-17T03:33:42.695Z,-0.79
2023-02-17T03:36:13.960Z,-0.79
2023-02-17T03:38:44.983Z,-0.78
2023-02-17T03:41:16.014Z,-0.79
2023-02-17T03:43:47.102Z,-0.80
2023-02-17T03:46:19.496Z,-0.80
2023-02-17T03:48:50.611Z,-0.79
2023-02-17T03:51:23.610Z,-0.79
2023-02-17T03:53:54.890Z,-0.80
2023-02-17T03:56:26.092Z,-0.81
2023-02-17T03:58:57.202Z,-0.81
2023-02-17T04:01:28.389Z,-0.81
2023-02-17T04:03:59.303Z,-0.83
2023-02-17T04:06:30.521Z,-0.84
2023-02-17T04:09:01.426Z,-0.83
2023-02-17T04:11:32.469Z,-0.83
2023-02-17T04:14:03.675Z,-0.84
2023-02-17T04:16:34.851Z,-0.85
2023-02-17T04:19:06.111Z,-0.85
2023-02-17T04:21:37.276Z,-0.88
2023-02-17T04:24:08.765Z,-0.91
2023-02-17T04:26:38.090Z,-0.92
2023-02-17T04:29:09.131Z,-0.94
2023-02-17T04:31:40.846Z,-0.96
2023-02-17T04:34:10.412Z,-0.96
2023-02-17T04:36:42.889Z,-0.97
2023-02-17T04:39:15.343Z,-0.95
2023-02-17T04:41:46.675Z,-0.92
2023-02-17T04:44:17.722Z,-0.89
2023-02-17T04:46:48.850Z,-0.85
2023-02-17T04:49:19.871Z,-0.80
2023-02-17T04:51:50.880Z,-0.75
2023-02-17T04:54:22.892Z,-0.70
2023-02-17T04:56:53.818Z,-0.66
2023-02-17T04:59:25.724Z,-0.62
2023-02-17T05:01:57.047Z,-0.58
2023-02-17T05:04:28.297Z,-0.54
2023-02-17T05:06:59.338Z,-0.51
2023-02-17T05:09:30.941Z,-0.50
2023-02-17T05:12:03.076Z,-0.46
2023-02-17T05:14:34.197Z,-0.42
2023-02-17T05:17:05.343Z,-0.39
2023-02-17T05:19:36.829Z,-0.36
2023-02-17T05:22:06.304Z,-0.32
2023-02-17T05:24:38.867Z,-0.30
2023-02-17T05:27:09.910Z,-0.28
2023-02-17T05:29:41.172Z,-0.25
2023-02-17T05:32:12.207Z,-0.22
2023-02-17T05:34:43.658Z,-0.21
2023-02-17T05:37:14.491Z,-0.19
2023-02-17T05:39:45.532Z,-0.18
2023-02-17T05:42:16.785Z,-0.16
2023-02-17T05:44:47.701Z,-0.15
2023-02-17T05:47:18.482Z,-0.12
2023-02-17T05:49:49.549Z,-0.11
2023-02-17T05:52:20.936Z,-0.11
2023-02-17T05:54:50.344Z,-0.10
2023-02-17T05:57:21.345Z,-0.12
2023-02-17T05:59:52.438Z,-0.11
2023-02-17T06:02:23.350Z,-0.09
2023-02-17T06:04:54.704Z,-0.08
2023-02-17T06:07:24.391Z,-0.07
2023-02-17T06:09:55.339Z,-0.09
2023-02-17T06:12:26.816Z,-0.06
2023-02-17T06:14:58.092Z,-0.03
2023-02-17T06:17:29.645Z,0.01
2023-02-17T06:20:00.752Z,0.03
2023-02-17T06:22:31.915Z,0.04
2023-02-17T06:25:02.907Z,0.05
2023-02-17T06:27:34.036Z,0.03
2023-02-17T06:30:05.721Z,0.05
2023-02-17T06:32:36.840Z,0.06
2023-02-17T06:35:08.843Z,0.10
2023-02-17T06:37:39.695Z,0.13
2023-02-17T06:40:12.639Z,0.15
2023-02-17T06:42:43.691Z,0.19
2023-02-17T06:45:14.844Z,0.22
2023-02-17T06:47:45.865Z,0.25
2023-02-17T06:50:17.114Z,0.28
2023-02-17T06:52:48.208Z,0.32
2023-02-17T06:55:19.481Z,0.33
2023-02-17T06:57:50.618Z,0.35
2023-02-17T07:00:23.238Z,0.38
2023-02-17T07:02:54.524Z,0.40
2023-02-17T07:05:25.626Z,0.43
2023-02-17T07:07:58.142Z,0.45
2023-02-17T07:10:29.138Z,0.47
2023-02-17T07:13:00.392Z,0.50
2023-02-17T07:15:30.397Z,0.53
2023-02-17T07:18:02.116Z,0.55
2023-02-17T07:20:33.401Z,0.58
2023-02-17T07:23:04.632Z,0.62
2023-02-17T07:25:35.866Z,0.66
2023-02-17T07:28:07.029Z,0.68
2023-02-17T07:30:42.435Z,0.71
2023-02-17T07:33:13.825Z,0.71
2023-02-17T07:35:45.591Z,0.73
2023-02-17T07:38:16.928Z,0.76
2023-02-17T07:40:48.870Z,0.79
2023-02-17T07:43:19.809Z,0.83
2023-02-17T07:45:56.160Z,0.86
2023-02-17T07:48:29.001Z,0.89
2023-02-17T07:51:04.914Z,0.91
2023-02-17T07:53:36.655Z,0.91
2023-02-17T07:56:09.715Z,0.95
2023-02-17T07:58:42.536Z,0.99
2023-02-17T08:01:15.815Z,1.02
2023-02-17T08:03:47.291Z,1.03
2023-02-17T08:06:20.878Z,1.07
2023-02-17T08:09:10.251Z,1.10
2023-02-17T08:11:59.740Z,1.12
2023-02-17T08:14:33.533Z,1.13
2023-02-17T08:17:04.875Z,1.14
2023-02-17T08:19:47.467Z,1.12
2023-02-17T08:22:18.652Z,1.10
2023-02-17T08:24:50.885Z,1.08
2023-02-17T08:27:22.591Z,1.10
2023-02-17T08:29:55.613Z,1.13
2023-02-17T08:32:26.917Z,1.17
2023-02-17T08:34:59.653Z,1.20
2023-02-17T08:37:31.903Z,1.25
2023-02-17T08:40:03.142Z,1.28
2023-02-17T08:42:35.738Z,1.30
2023-02-17T08:45:08.127Z,1.34
2023-02-17T08:47:39.703Z,1.37
2023-02-17T08:50:16.027Z,1.40
2023-02-17T08:52:46.861Z,1.43
2023-02-17T08:55:19.329Z,1.48
2023-02-17T08:57:50.370Z,1.50
2023-02-17T09:00:22.150Z,1.52
2023-02-17T09:02:53.058Z,1.53
2023-02-17T09:05:24.590Z,1.55
2023-02-17T09:07:58.227Z,1.57
2023-02-17T09:10:29.576Z,1.59
2023-02-17T09:12:59.026Z,1.61
2023-02-17T09:15:30.876Z,1.65
2023-02-17T09:18:02.298Z,1.69
2023-02-17T09:20:33.795Z,1.71
2023-02-17T09:23:04.841Z,1.74
2023-02-17T09:25:35.806Z,1.78
2023-02-17T09:28:05.747Z,1.79
2023-02-17T09:30:37.259Z,1.81
2023-02-17T09:33:08.705Z,1.87
2023-02-17T09:35:38.957Z,1.92
2023-02-17T09:38:10.331Z,1.95
2023-02-17T09:40:47.448Z,1.99
2023-02-17T09:43:20.706Z,2.04
2023-02-17T09:45:56.456Z,2.09
2023-02-17T09:48:32.364Z,2.16
2023-02-17T09:51:07.998Z,2.22
2023-02-17T09:53:44.144Z,2.27
2023-02-17T09:56:21.592Z,2.31
2023-02-17T09:58:56.680Z,2.37
2023-02-17T10:01:32.784Z,2.42
2023-02-17T10:04:09.821Z,2.47
2023-02-17T10:06:44.487Z,2.51
2023-02-17T10:09:22.169Z,2.55
2023-02-17T10:11:58.378Z,2.60
2023-02-17T10:14:34.788Z,2.66
2023-02-17T10:17:11.688Z,2.71
2023-02-17T10:19:53.101Z,2.77
2023-02-17T10:22:25.548Z,2.81
2023-02-17T10:24:56.682Z,2.85
2023-02-17T10:27:33.858Z,2.90
2023-02-17T10:30:34.454Z,2.94
2023-02-17T10:33:15.355Z,3.01
2023-02-17T10:36:01.101Z,3.06
2023-02-17T10:38:43.506Z,3.11
2023-02-17T10:41:19.029Z,3.15
2023-02-17T10:43:51.389Z,3.19
2023-02-17T10:46:30.031Z,3.22
2023-02-17T10:49:02.662Z,3.26
2023-02-17T10:51:34.036Z,3.31
2023-02-17T10:54:05.175Z,3.36
2023-02-17T10:56:40.994Z,3.37
2023-02-17T10:59:20.336Z,3.42
2023-02-17T11:01:52.038Z,3.46
2023-02-17T11:04:23.416Z,3.50
2023-02-17T11:06:56.262Z,3.52
2023-02-17T11:09:32.894Z,3.56
2023-02-17T11:12:07.703Z,3.58
2023-02-17T11:14:45.028Z,3.60
2023-02-17T11:17:23.008Z,3.62
2023-02-17T11:20:05.152Z,3.65
2023-02-17T11:22:41.940Z,3.68
2023-02-17T11:25:24.045Z,3.71
2023-02-17T11:27:57.541Z,3.75
2023-02-17T11:30:31.146Z,3.78
2023-02-17T11:33:11.685Z,3.80
2023-02-17T11:35:51.821Z,3.80
2023-02-17T11:38:25.824Z,3.79
2023-02-17T11:40:59.489Z,3.79
2023-02-17T11:43:33.073Z,3.76
2023-02-17T11:46:19.474Z,3.77
2023-02-17T11:49:16.639Z,3.76
2023-02-17T11:52:01.177Z,3.75
2023-02-17T11:54:45.711Z,3.71
2023-02-17T11:57:32.951Z,3.67
2023-02-17T12:00:14.885Z,3.64
2023-02-17T12:03:04.414Z,3.63
2023-02-17T12:05:50.808Z,3.63
2023-02-17T12:08:28.344Z,3.66
2023-02-17T12:11:08.677Z,3.71
2023-02-17T12:13:54.810Z,3.74
2023-02-17T12:16:36.964Z,3.77
2023-02-17T12:19:23.809Z,3.79
2023-02-17T12:22:03.861Z,3.83
2023-02-17T12:24:59.448Z,3.86
2023-02-17T12:27:39.713Z,3.88
2023-02-17T12:30:31.718Z,3.90
2023-02-17T12:33:29.132Z,3.91
2023-02-17T12:36:04.677Z,3.91
2023-02-17T12:38:41.017Z,3.90
2023-02-17T12:41:14.697Z,3.93
2023-02-17T12:43:49.842Z,3.98
2023-02-17T12:46:25.292Z,4.02
2023-02-17T12:49:01.215Z,4.04
2023-02-17T12:51:36.385Z,4.05
2023-02-17T12:54:13.356Z,4.06
2023-02-17T12:56:55.696Z,4.08
2023-02-17T12:59:33.969Z,4.08
2023-02-17T13:02:07.469Z,4.08
2023-02-17T13:04:40.808Z,4.08
2023-02-17T13:07:26.540Z,4.07
2023-02-17T13:09:58.784Z,4.05
2023-02-17T13:12:40.842Z,4.03
2023-02-17T13:15:30.881Z,4.01
2023-02-17T13:18:03.177Z,4.02
2023-02-17T13:20:58.484Z,4.00
2023-02-17T13:23:36.683Z,4.01
2023-02-17T13:26:17.090Z,4.01
2023-02-17T13:28:49.083Z,4.00
2023-02-17T13:31:23.013Z,3.99
2023-02-17T13:33:56.945Z,3.97
2023-02-17T13:36:39.241Z,3.98
2023-02-17T13:39:35.241Z,3.98
2023-02-17T13:42:27.397Z,3.94
2023-02-17T13:44:59.674Z,3.91
2023-02-17T13:47:37.867Z,3.90
2023-02-17T13:50:28.025Z,3.89
2023-02-17T13:52:59.784Z,3.87
2023-02-17T13:55:31.558Z,3.85
2023-02-17T13:58:02.754Z,3.85
2023-02-17T14:00:35.065Z,3.87
2023-02-17T14:03:19.396Z,3.84
2023-02-17T14:05:52.438Z,3.82
2023-02-17T14:08:34.941Z,3.81
2023-02-17T14:11:12.985Z,3.78
2023-02-17T14:13:46.821Z,3.79
2023-02-17T14:16:33.625Z,3.79
2023-02-17T14:19:07.727Z,3.78
2023-02-17T14:21:40.341Z,3.78
2023-02-17T14:24:26.259Z,3.77
2023-02-17T14:27:01.373Z,3.78
2023-02-17T14:29:43.883Z,3.78
2023-02-17T14:32:36.135Z,3.76
2023-02-17T14:35:24.516Z,3.74
2023-02-17T14:37:55.760Z,3.72
2023-02-17T14:40:27.671Z,3.71
2023-02-17T14:42:58.866Z,3.69
2023-02-17T14:45:28.449Z,3.67
2023-02-17T14:47:59.539Z,3.64
2023-02-17T14:50:30.378Z,3.62
2023-02-17T14:53:01.513Z,3.59
2023-02-17T14:55:38.403Z,3.57
2023-02-17T14:58:10.128Z,3.53
2023-02-17T15:00:40.966Z,3.49
2023-02-17T15:03:13.223Z,3.43
2023-02-17T15:05:44.504Z,3.34
2023-02-17T15:08:16.009Z,3.26
2023-02-17T15:10:47.374Z,3.22
2023-02-17T15:13:18.219Z,3.20
2023-02-17T15:15:49.843Z,3.20
2023-02-17T15:18:22.230Z,3.19
2023-02-17T15:20:54.290Z,3.13
2023-02-17T15:23:26.797Z,3.09
2023-02-17T15:25:59.120Z,3.05
2023-02-17T15:28:30.200Z,3.04
2023-02-17T15:31:02.484Z,3.05
2023-02-17T15:33:34.119Z,3.08
2023-02-17T15:36:06.154Z,3.07
2023-02-17T15:38:37.306Z,3.04
2023-02-17T15:41:15.154Z,3.02
2023-02-17T15:43:49.028Z,3.02
2023-02-17T15:46:21.856Z,3.01
2023-02-17T15:48:52.790Z,3.01
2023-02-17T15:51:24.836Z,2.97
2023-02-17T15:53:55.966Z,2.94
2023-02-17T15:56:31.052Z,2.93
2023-02-17T15:59:07.215Z,2.94
2023-02-17T16:01:38.566Z,2.96
2023-02-17T16:04:11.353Z,2.98
2023-02-17T16:06:42.936Z,2.97
2023-02-17T16:09:14.669Z,2.99
2023-02-17T16:11:49.704Z,3.00
2023-02-17T16:14:29.572Z,3.01
2023-02-17T16:17:00.761Z,3.01
2023-02-17T16:19:33.515Z,3.03
2023-02-17T16:22:04.420Z,3.05
2023-02-17T16:24:35.580Z,3.08
2023-02-17T16:27:09.607Z,3.10
2023-02-17T16:29:41.473Z,3.10
2023-02-17T16:32:14.666Z,3.12
2023-02-17T16:34:45.806Z,3.13
2023-02-17T16:37:18.586Z,3.12
2023-02-17T16:39:49.858Z,3.10
2023-02-17T16:42:20.866Z,3.09
2023-02-17T16:44:51.130Z,3.09
2023-02-17T16:47:24.088Z,3.05
2023-02-17T16:49:55.384Z,3.03
2023-02-17T16:52:28.284Z,3.00
2023-02-17T16:54:59.581Z,2.96
2023-02-17T16:57:31.006Z,2.94
2023-02-17T17:00:02.017Z,2.94
2023-02-17T17:02:33.724Z,2.93
2023-02-17T17:05:05.122Z,2.94
2023-02-17T17:07:36.405Z,2.95
2023-02-17T17:10:16.573Z,2.94
2023-02-17T17:12:48.590Z,2.94
2023-02-17T17:15:22.566Z,2.93
2023-02-17T17:17:57.999Z,2.94
2023-02-17T17:20:32.228Z,2.94
2023-02-17T17:23:05.186Z,2.94
2023-02-17T17:25:39.098Z,2.94
2023-02-17T17:28:13.621Z,2.95
2023-02-17T17:30:45.812Z,2.94
2023-02-17T17:33:17.304Z,2.92
2023-02-17T17:35:48.446Z,2.92
2023-02-17T17:38:19.589Z,2.91
2023-02-17T17:40:50.451Z,2.88
2023-02-17T17:43:23.437Z,2.85
2023-02-17T17:45:56.203Z,2.80
2023-02-17T17:48:27.030Z,2.74
2023-02-17T17:50:57.989Z,2.68
2023-02-17T17:53:27.620Z,2.63
2023-02-17T17:55:59.076Z,2.57
2023-02-17T17:58:31.547Z,2.56
2023-02-17T18:01:02.797Z,2.53
2023-02-17T18:03:34.055Z,2.56
2023-02-17T18:06:07.627Z,2.75
2023-02-17T18:08:39.974Z,3.26
2023-02-17T18:11:13.997Z,3.72
2023-02-17T18:13:47.100Z,4.23
2023-02-17T18:16:20.030Z,4.65
2023-02-17T18:18:51.901Z,5.02
2023-02-17T18:21:22.947Z,5.30
2023-02-17T18:23:54.390Z,5.53
2023-02-17T18:26:25.458Z,5.75
2023-02-17T18:28:54.815Z,5.94
2023-02-17T18:31:29.142Z,6.08
2023-02-17T18:34:00.665Z,6.22
2023-02-17T18:36:32.052Z,6.35
2023-02-17T18:39:03.336Z,6.48
2023-02-17T18:41:36.097Z,6.59
2023-02-17T18:44:07.836Z,6.70
2023-02-17T18:46:39.923Z,6.77
2023-02-17T18:49:11.226Z,6.82
2023-02-17T18:51:42.493Z,6.86
2023-02-17T18:54:14.141Z,6.91
2023-02-17T18:56:45.379Z,6.94
2023-02-17T18:59:16.560Z,6.96
2023-02-17T19:01:47.692Z,6.99
2023-02-17T19:04:19.111Z,7.01
2023-02-17T19:06:50.185Z,7.04
2023-02-17T19:09:21.279Z,7.04
2023-02-17T19:11:50.674Z,7.02
2023-02-17T19:14:21.593Z,7.01
2023-02-17T19:16:52.950Z,7.06
2023-02-17T19:19:24.454Z,7.12
2023-02-17T19:21:56.279Z,7.16
2023-02-17T19:24:27.360Z,7.23
2023-02-17T19:26:57.159Z,7.24
2023-02-17T19:29:28.177Z,7.24
2023-02-17T19:31:59.694Z,7.27
2023-02-17T19:34:32.383Z,7.28
2023-02-17T19:37:03.450Z,7.30
2023-02-17T19:39:37.061Z,7.29
2023-02-17T19:42:08.737Z,7.32
2023-02-17T19:44:39.862Z,7.37
2023-02-17T19:47:09.229Z,7.43
2023-02-17T19:49:40.121Z,7.47
2023-02-17T19:52:10.236Z,7.52
2023-02-17T19:54:41.158Z,7.56
2023-02-17T19:57:17.298Z,7.60
2023-02-17T19:59:48.614Z,7.60
2023-02-17T20:02:20.060Z,7.61
2023-02-17T20:04:51.305Z,7.61
2023-02-17T20:07:22.362Z,7.64
2023-02-17T20:09:53.242Z,7.66
2023-02-17T20:12:22.684Z,7.71
2023-02-17T20:14:53.203Z,7.72
2023-02-17T20:17:24.517Z,7.74
2023-02-17T20:19:54.237Z,7.82
2023-02-17T20:22:25.147Z,7.83
2023-02-17T20:24:56.213Z,7.86
2023-02-17T20:27:27.235Z,7.89
2023-02-17T20:29:59.520Z,7.93
2023-02-17T20:32:30.761Z,7.95
2023-02-17T20:35:01.803Z,7.96
2023-02-17T20:37:32.876Z,7.99
2023-02-17T20:40:03.984Z,8.01
2023-02-17T20:42:35.253Z,8.01
2023-02-17T20:45:05.284Z,8.03
2023-02-17T20:47:36.318Z,8.04
2023-02-17T20:50:09.254Z,8.06
2023-02-17T20:52:40.268Z,8.08
2023-02-17T20:55:12.347Z,8.12
2023-02-17T20:57:43.218Z,8.16
2023-02-17T21:00:19.729Z,8.18
2023-02-17T21:02:52.333Z,8.20
2023-02-17T21:05:24.891Z,8.21
2023-02-17T21:07:56.699Z,8.22
2023-02-17T21:10:30.742Z,8.23
2023-02-17T21:13:01.824Z,8.25
2023-02-17T21:15:34.145Z,8.22
2023-02-17T21:18:05.767Z,8.22
2023-02-17T21:20:36.826Z,8.20
2023-02-17T21:23:08.153Z,8.17
2023-02-17T21:25:39.246Z,8.14
2023-02-17T21:28:10.463Z,8.12
2023-02-17T21:30:42.120Z,8.11
2023-02-17T21:33:13.232Z,8.12
2023-02-17T21:35:42.715Z,8.15
2023-02-17T21:38:15.502Z,8.16
2023-02-17T21:40:47.099Z,8.18
2023-02-17T21:43:36.311Z,8.23
2023-02-17T21:46:11.241Z,8.25
2023-02-17T21:48:42.213Z,8.26
2023-02-17T21:51:12.679Z,8.30
2023-02-17T21:53:44.080Z,8.29
2023-02-17T21:56:15.463Z,8.31
2023-02-17T21:58:49.980Z,8.32
2023-02-17T22:01:22.553Z,8.30
2023-02-17T22:03:54.273Z,8.30
2023-02-17T22:06:27.468Z,8.30
2023-02-17T22:09:00.070Z,8.30
2023-02-17T22:11:33.191Z,8.29
2023-02-17T22:14:06.641Z,8.31
2023-02-17T22:16:38.389Z,8.29
2023-02-17T22:19:13.764Z,8.29
2023-02-17T22:21:45.369Z,8.28
2023-02-17T22:24:16.782Z,8.25
2023-02-17T22:26:48.240Z,8.24
2023-02-17T22:29:20.077Z,8.24
2023-02-17T22:31:56.117Z,8.23
2023-02-17T22:34:28.775Z,8.23
2023-02-17T22:37:00.253Z,8.23
2023-02-17T22:39:31.316Z,8.25
2023-02-17T22:42:03.489Z,8.27
2023-02-17T22:44:34.436Z,8.31
2023-02-17T22:47:04.091Z,8.35
2023-02-17T22:49:35.044Z,8.36
2023-02-17T22:52:06.398Z,8.38
2023-02-17T22:54:38.907Z,8.38
2023-02-17T22:57:09.986Z,8.38
2023-02-17T22:59:40.963Z,8.34
2023-02-17T23:02:10.365Z,8.29
2023-02-17T23:04:41.484Z,8.25
2023-02-17T23:07:12.581Z,8.21
2023-02-17T23:09:43.687Z,8.16
2023-02-17T23:12:14.763Z,8.15
2023-02-17T23:14:46.265Z,8.11
2023-02-17T23:17:17.303Z,8.06
2023-02-17T23:19:48.234Z,8.04
2023-02-17T23:22:19.950Z,8.02
2023-02-17T23:24:51.195Z,7.99
2023-02-17T23:27:22.118Z,7.98
2023-02-17T23:29:53.362Z,7.98
2023-02-17T23:32:22.744Z,7.97
2023-02-17T23:34:53.767Z,7.95
2023-02-17T23:37:25.058Z,7.96
2023-02-17T23:39:56.031Z,7.99
2023-02-17T23:42:27.561Z,8.00
2023-02-17T23:44:58.554Z,7.99
2023-02-17T23:47:28.028Z,8.02
2023-02-17T23:49:59.398Z,8.03
2023-02-17T23:52:30.629Z,8.07
2023-02-17T23:55:01.728Z,8.13
2023-02-17T23:57:39.198Z,8.10
